createdAt,value
2019-05-12T00:00:42.854Z,2.70
2019-05-12T00:01:42.856Z,2.60
2019-05-12T00:02:42.926Z,2.70
2019-05-12T00:03:42.879Z,2.90
2019-05-12T00:04:42.897Z,2.60
2019-05-12T00:05:42.907Z,2.40
2019-05-12T00:06:42.925Z,2.30
2019-05-12T00:07:42.930Z,2.90
2019-05-12T00:08:42.952Z,2.50
2019-05-12T00:09:42.962Z,2.60
2019-05-12T00:10:42.979Z,2.80
2019-05-12T00:11:42.982Z,2.60
2019-05-12T00:12:43.328Z,2.50
2019-05-12T00:13:43.008Z,3.10
2019-05-12T00:14:43.023Z,2.60
2019-05-12T00:15:43.038Z,2.60
2019-05-12T00:16:43.063Z,2.70
2019-05-12T00:17:43.082Z,2.80
2019-05-12T00:18:43.081Z,2.60
2019-05-12T00:19:43.092Z,2.70
2019-05-12T00:20:43.150Z,3.00
2019-05-12T00:21:43.112Z,2.60
2019-05-12T00:22:43.131Z,2.70
2019-05-12T00:23:43.190Z,2.20
2019-05-12T00:24:43.149Z,2.90
2019-05-12T00:25:43.165Z,2.50
2019-05-12T00:26:43.180Z,2.50
2019-05-12T00:27:43.235Z,2.90
2019-05-12T00:28:43.202Z,2.60
2019-05-12T00:29:43.221Z,2.70
2019-05-12T00:30:43.229Z,2.80
2019-05-12T00:31:43.238Z,2.90
2019-05-12T00:32:43.253Z,2.50
2019-05-12T00:33:43.272Z,2.80
2019-05-12T00:34:43.283Z,2.70
2019-05-12T00:35:43.299Z,3.00
2019-05-12T00:36:43.308Z,2.80
2019-05-12T00:37:43.317Z,3.00
2019-05-12T00:38:43.332Z,2.70
2019-05-12T00:39:43.389Z,3.00
2019-05-12T00:40:43.359Z,3.00
2019-05-12T00:41:44.533Z,2.70
2019-05-12T00:42:43.379Z,2.70
2019-05-12T00:43:43.396Z,3.00
2019-05-12T00:44:43.410Z,2.50
2019-05-12T00:45:43.701Z,3.00
2019-05-12T00:46:43.432Z,2.80
2019-05-12T00:47:43.544Z,3.00
2019-05-12T00:48:43.467Z,2.80
2019-05-12T00:49:43.479Z,2.70
2019-05-12T00:50:43.494Z,2.50
2019-05-12T00:51:43.495Z,2.90
2019-05-12T00:52:43.509Z,2.90
2019-05-12T00:53:43.606Z,3.20
2019-05-12T00:54:43.731Z,3.10
2019-05-12T00:55:43.567Z,2.80
2019-05-12T00:56:43.559Z,3.10
2019-05-12T00:57:43.572Z,3.10
2019-05-12T00:58:43.782Z,2.60
2019-05-12T00:59:43.665Z,3.40
2019-05-12T01:00:43.607Z,2.60
2019-05-12T01:01:43.624Z,3.30
2019-05-12T01:02:43.639Z,3.00
2019-05-12T01:03:43.646Z,2.80
2019-05-12T01:04:43.658Z,3.20
2019-05-12T01:05:43.689Z,3.10
2019-05-12T01:06:43.686Z,2.80
2019-05-12T01:07:43.732Z,3.20
2019-05-12T01:08:43.714Z,3.50
2019-05-12T01:09:43.731Z,3.00
2019-05-12T01:10:43.735Z,3.00
2019-05-12T01:11:43.764Z,3.10
2019-05-12T01:12:43.762Z,3.20
2019-05-12T01:13:43.778Z,3.30
2019-05-12T01:14:43.792Z,3.30
2019-05-12T01:15:43.808Z,3.10
2019-05-12T01:16:43.820Z,3.30
2019-05-12T01:17:43.830Z,2.90
2019-05-12T01:18:43.838Z,3.60
2019-05-12T01:19:43.856Z,3.00
2019-05-12T01:20:43.867Z,3.40
2019-05-12T01:21:43.905Z,3.00
2019-05-12T01:22:43.910Z,3.20
2019-05-12T01:23:56.416Z,3.00
2019-05-12T01:24:43.925Z,3.40
2019-05-12T01:25:43.927Z,3.30
2019-05-12T01:26:43.951Z,3.20
2019-05-12T01:27:43.982Z,3.40
2019-05-12T01:28:44.039Z,3.30
2019-05-12T01:29:43.984Z,3.20
2019-05-12T01:30:44.041Z,3.30
2019-05-12T01:31:44.003Z,3.30
2019-05-12T01:32:44.018Z,3.20
2019-05-12T01:33:44.031Z,3.20
2019-05-12T01:34:44.040Z,3.30
2019-05-12T01:35:44.054Z,3.30
2019-05-12T01:36:44.068Z,2.80
2019-05-12T01:37:44.086Z,3.30
2019-05-12T01:38:44.103Z,3.20
2019-05-12T01:39:44.109Z,3.50
2019-05-12T01:40:44.120Z,3.20
2019-05-12T01:41:44.139Z,3.10
2019-05-12T01:42:44.139Z,3.40
2019-05-12T01:43:44.151Z,3.20
2019-05-12T01:44:44.170Z,3.60
2019-05-12T01:45:44.190Z,3.20
2019-05-12T01:46:44.193Z,3.30
2019-05-12T01:47:44.208Z,3.30
2019-05-12T01:48:44.221Z,3.30
2019-05-12T01:49:44.233Z,3.10
2019-05-12T01:50:44.243Z,3.10
2019-05-12T01:51:44.257Z,3.30
2019-05-12T01:52:44.383Z,3.20
2019-05-12T01:53:44.279Z,3.30
2019-05-12T01:54:44.292Z,3.20
2019-05-12T01:55:44.305Z,3.20
2019-05-12T01:56:44.322Z,2.90
2019-05-12T01:57:44.377Z,2.90
2019-05-12T01:58:44.543Z,3.10
2019-05-12T01:59:44.354Z,3.80
2019-05-12T02:00:44.480Z,3.10
2019-05-12T02:01:44.761Z,3.00
2019-05-12T02:02:44.404Z,3.40
2019-05-12T02:03:44.410Z,3.10
2019-05-12T02:04:44.417Z,3.40
2019-05-12T02:05:44.431Z,3.30
2019-05-12T02:06:44.442Z,3.40
2019-05-12T02:07:44.459Z,3.20
2019-05-12T02:08:44.468Z,3.00
2019-05-12T02:09:44.492Z,3.70
2019-05-12T02:10:44.494Z,3.20
2019-05-12T02:11:44.511Z,3.50
2019-05-12T02:12:44.518Z,3.00
2019-05-12T02:13:44.530Z,3.10
2019-05-12T02:14:44.541Z,3.60
2019-05-12T02:15:44.558Z,4.00
2019-05-12T02:16:44.567Z,3.30
2019-05-12T02:17:44.577Z,3.00
2019-05-12T02:18:44.598Z,3.20
2019-05-12T02:19:44.604Z,3.30
2019-05-12T02:20:44.624Z,3.10
2019-05-12T02:21:44.630Z,3.50
2019-05-12T02:22:44.649Z,3.10
2019-05-12T02:23:44.661Z,3.50
2019-05-12T02:24:44.672Z,3.10
2019-05-12T02:25:44.699Z,3.30
2019-05-12T02:26:44.688Z,3.50
2019-05-12T02:27:44.709Z,3.30
2019-05-12T02:28:44.720Z,3.60
2019-05-12T02:29:44.736Z,3.60
2019-05-12T02:30:44.748Z,3.30
2019-05-12T02:31:44.814Z,3.60
2019-05-12T02:32:52.418Z,3.10
2019-05-12T02:33:44.921Z,3.30
2019-05-12T02:34:45.740Z,3.10
2019-05-12T02:35:44.810Z,3.60
2019-05-12T02:36:45.115Z,3.50
2019-05-12T02:37:45.300Z,3.70
2019-05-12T02:38:45.449Z,3.80
2019-05-12T02:39:45.059Z,3.20
2019-05-12T02:40:45.016Z,3.40
2019-05-12T02:41:45.165Z,3.80
2019-05-12T02:42:46.404Z,3.50
2019-05-12T02:43:45.806Z,3.20
2019-05-12T02:44:44.933Z,3.50
2019-05-12T02:45:44.935Z,3.90
2019-05-12T02:46:44.984Z,3.20
2019-05-12T02:47:45.889Z,3.20
2019-05-12T02:48:45.201Z,3.60
2019-05-12T02:49:45.028Z,3.50
2019-05-12T02:50:45.298Z,3.80
2019-05-12T02:51:45.622Z,3.50
2019-05-12T02:52:45.013Z,3.20
2019-05-12T02:53:47.098Z,3.70
2019-05-12T02:54:55.400Z,3.40
2019-05-12T02:55:45.222Z,3.70
2019-05-12T02:56:45.269Z,3.30
2019-05-12T02:57:45.354Z,3.50
2019-05-12T02:58:45.393Z,3.60
2019-05-12T02:59:45.091Z,3.50
2019-05-12T03:00:45.712Z,3.70
2019-05-12T03:01:45.331Z,3.40
2019-05-12T03:02:45.132Z,3.50
2019-05-12T03:03:45.143Z,3.20
2019-05-12T03:04:45.214Z,3.30
2019-05-12T03:05:45.376Z,3.70
2019-05-12T03:06:45.180Z,3.50
2019-05-12T03:07:45.238Z,3.60
2019-05-12T03:08:45.206Z,3.60
2019-05-12T03:09:45.223Z,3.40
2019-05-12T03:10:45.229Z,3.20
2019-05-12T03:11:45.249Z,3.30
2019-05-12T03:12:45.264Z,3.40
2019-05-12T03:13:45.272Z,3.30
2019-05-12T03:14:45.283Z,3.30
2019-05-12T03:15:45.300Z,3.60
2019-05-12T03:16:45.609Z,3.50
2019-05-12T03:17:45.315Z,3.10
2019-05-12T03:18:45.336Z,3.40
2019-05-12T03:19:45.341Z,3.40
2019-05-12T03:20:45.708Z,3.30
2019-05-12T03:21:45.377Z,3.50
2019-05-12T03:22:45.386Z,3.20
2019-05-12T03:23:45.391Z,3.20
2019-05-12T03:24:45.406Z,3.50
2019-05-12T03:25:45.838Z,3.20
2019-05-12T03:26:45.443Z,3.70
2019-05-12T03:27:45.446Z,2.90
2019-05-12T03:28:45.449Z,3.40
2019-05-12T03:29:45.482Z,3.30
2019-05-12T03:30:48.207Z,3.60
2019-05-12T03:31:48.702Z,3.10
2019-05-12T03:32:47.210Z,3.10
2019-05-12T03:33:52.102Z,4.00
2019-05-12T03:34:47.509Z,3.50
2019-05-12T03:35:52.203Z,3.40
2019-05-12T03:36:51.305Z,3.60
2019-05-12T03:37:45.903Z,3.50
2019-05-12T03:38:45.578Z,3.50
2019-05-12T03:39:45.592Z,3.50
2019-05-12T03:40:45.606Z,3.40
2019-05-12T03:41:45.669Z,3.20
2019-05-12T03:42:45.633Z,3.80
2019-05-12T03:43:45.639Z,3.40
2019-05-12T03:44:45.660Z,3.90
2019-05-12T03:45:45.696Z,3.30
2019-05-12T03:46:45.972Z,3.80
2019-05-12T03:47:45.824Z,3.30
2019-05-12T03:48:45.707Z,3.70
2019-05-12T03:49:45.711Z,3.50
2019-05-12T03:50:46.369Z,3.40
2019-05-12T03:51:45.939Z,3.90
2019-05-12T03:52:45.748Z,3.30
2019-05-12T03:53:45.763Z,3.70
2019-05-12T03:54:45.784Z,2.90
2019-05-12T03:55:47.282Z,3.40
2019-05-12T03:56:45.797Z,3.90
2019-05-12T03:57:45.818Z,3.60
2019-05-12T03:58:45.830Z,3.80
2019-05-12T03:59:45.844Z,3.50
2019-05-12T04:00:45.955Z,3.40
2019-05-12T04:01:45.860Z,3.30
2019-05-12T04:02:45.874Z,3.50
2019-05-12T04:03:45.899Z,4.00
2019-05-12T04:04:45.899Z,3.60
2019-05-12T04:06:45.980Z,3.40
2019-05-12T04:07:45.939Z,3.50
2019-05-12T04:08:46.016Z,3.80
2019-05-12T04:09:45.974Z,3.70
2019-05-12T04:10:46.191Z,3.30
2019-05-12T04:11:45.990Z,3.60
2019-05-12T04:12:46.008Z,3.80
2019-05-12T04:13:46.018Z,3.60
2019-05-12T04:14:46.031Z,3.50
2019-05-12T04:15:46.197Z,3.50
2019-05-12T04:16:46.049Z,3.40
2019-05-12T04:17:46.061Z,3.80
2019-05-12T04:18:46.073Z,3.30
2019-05-12T04:19:46.093Z,3.40
2019-05-12T04:20:46.140Z,3.70
2019-05-12T04:21:46.114Z,4.10
2019-05-12T04:22:46.127Z,3.20
2019-05-12T04:23:46.135Z,3.80
2019-05-12T04:24:46.157Z,3.50
2019-05-12T04:25:52.276Z,3.50
2019-05-12T04:26:46.181Z,3.30
2019-05-12T04:27:46.196Z,3.60
2019-05-12T04:28:46.209Z,3.60
2019-05-12T04:29:46.219Z,3.70
2019-05-12T04:30:46.235Z,3.70
2019-05-12T04:31:46.240Z,3.60
2019-05-12T04:32:46.328Z,3.90
2019-05-12T04:33:46.264Z,3.90
2019-05-12T04:34:46.283Z,3.60
2019-05-12T04:35:46.296Z,3.70
2019-05-12T04:36:46.305Z,3.70
2019-05-12T04:37:46.325Z,4.00
2019-05-12T04:38:46.342Z,3.40
2019-05-12T04:39:46.345Z,3.60
2019-05-12T04:40:46.352Z,3.60
2019-05-12T04:41:46.368Z,3.60
2019-05-12T04:42:46.378Z,3.70
2019-05-12T04:43:46.384Z,3.70
2019-05-12T04:44:46.407Z,3.40
2019-05-12T04:45:46.456Z,3.80
2019-05-12T04:46:46.760Z,3.60
2019-05-12T04:47:46.436Z,3.90
2019-05-12T04:48:46.449Z,3.80
2019-05-12T04:49:46.484Z,3.80
2019-05-12T04:50:46.516Z,3.70
2019-05-12T04:51:46.902Z,3.60
2019-05-12T04:52:46.508Z,3.80
2019-05-12T04:53:46.522Z,3.70
2019-05-12T04:54:46.525Z,3.50
2019-05-12T04:56:05.566Z,3.90
2019-05-12T04:57:46.568Z,4.10
2019-05-12T04:58:46.612Z,3.50
2019-05-12T04:59:46.627Z,3.40
2019-05-12T05:00:46.601Z,3.70
2019-05-12T05:01:46.614Z,3.50
2019-05-12T05:02:46.824Z,3.40
2019-05-12T05:03:47.128Z,3.30
2019-05-12T05:04:46.718Z,3.50
2019-05-12T05:05:46.667Z,3.40
2019-05-12T05:06:46.677Z,3.10
2019-05-12T05:07:46.687Z,3.50
2019-05-12T05:08:46.705Z,3.30
2019-05-12T05:09:46.714Z,3.40
2019-05-12T05:10:47.114Z,3.10
2019-05-12T05:11:46.987Z,3.30
2019-05-12T05:12:47.088Z,3.40
2019-05-12T05:13:47.072Z,3.00
2019-05-12T05:14:47.306Z,3.20
2019-05-12T05:15:46.947Z,3.70
2019-05-12T05:16:46.813Z,3.80
2019-05-12T05:17:46.818Z,3.30
2019-05-12T05:18:46.826Z,3.30
2019-05-12T05:19:46.851Z,3.10
2019-05-12T05:20:46.863Z,3.40
2019-05-12T05:21:46.870Z,3.20
2019-05-12T05:22:46.876Z,3.40
2019-05-12T05:23:46.892Z,3.30
2019-05-12T05:24:46.919Z,3.50
2019-05-12T05:25:46.918Z,3.30
2019-05-12T05:26:46.929Z,3.50
2019-05-12T05:27:46.942Z,3.00
2019-05-12T05:28:46.964Z,2.90
2019-05-12T05:29:46.970Z,3.60
2019-05-12T05:30:46.981Z,3.20
2019-05-12T05:31:47.005Z,3.20
2019-05-12T05:32:47.006Z,3.10
2019-05-12T05:33:47.023Z,3.00
2019-05-12T05:34:55.789Z,3.00
2019-05-12T05:35:47.047Z,3.00
2019-05-12T05:36:50.983Z,3.20
2019-05-12T05:37:47.082Z,3.40
2019-05-12T05:38:50.990Z,3.40
2019-05-12T05:39:49.681Z,3.40
2019-05-12T05:40:47.111Z,3.30
2019-05-12T05:41:50.935Z,3.00
2019-05-12T05:42:47.141Z,3.30
2019-05-12T05:43:48.699Z,3.10
2019-05-12T05:44:47.165Z,3.00
2019-05-12T05:45:47.179Z,3.50
2019-05-12T05:46:49.947Z,3.00
2019-05-12T05:47:48.934Z,3.00
2019-05-12T05:48:47.216Z,3.20
2019-05-12T05:49:47.230Z,3.50
2019-05-12T05:50:47.242Z,3.50
2019-05-12T05:51:54.238Z,3.30
2019-05-12T05:52:47.268Z,3.20
2019-05-12T05:53:49.896Z,3.20
2019-05-12T05:54:47.291Z,3.40
2019-05-12T05:55:50.308Z,3.20
2019-05-12T05:56:57.838Z,3.50
2019-05-12T05:57:47.332Z,3.30
2019-05-12T05:58:51.801Z,3.30
2019-05-12T05:59:47.365Z,3.50
2019-05-12T06:00:47.381Z,3.10
2019-05-12T06:01:52.021Z,3.10
2019-05-12T06:02:47.398Z,3.30
2019-05-12T06:04:49.762Z,3.30
2019-05-12T06:05:47.470Z,2.80
2019-05-12T06:06:50.780Z,3.40
2019-05-12T06:07:47.484Z,3.20
2019-05-12T06:08:47.497Z,3.50
2019-05-12T06:09:47.489Z,3.00
2019-05-12T06:10:47.506Z,3.30
2019-05-12T06:11:47.521Z,3.00
2019-05-12T06:12:50.779Z,3.00
2019-05-12T06:13:47.548Z,3.00
2019-05-12T06:14:54.518Z,3.10
2019-05-12T06:15:47.573Z,2.90
2019-05-12T06:16:48.081Z,3.00
2019-05-12T06:17:47.595Z,2.90
2019-05-12T06:18:47.615Z,2.80
2019-05-12T06:19:47.620Z,3.10
2019-05-12T06:20:47.631Z,2.70
2019-05-12T06:21:47.648Z,3.10
2019-05-12T06:22:48.713Z,3.30
2019-05-12T06:23:47.694Z,3.60
2019-05-12T06:24:49.138Z,3.40
2019-05-12T06:26:59.986Z,3.00
2019-05-12T06:27:51.066Z,2.70
2019-05-12T06:28:47.737Z,4.40
2019-05-12T06:29:54.468Z,3.40
2019-05-12T06:30:50.268Z,2.90
2019-05-12T06:31:47.776Z,3.10
2019-05-12T06:32:51.755Z,3.20
2019-05-12T06:33:47.816Z,3.20
2019-05-12T06:34:50.904Z,2.90
2019-05-12T06:35:47.827Z,2.70
2019-05-12T06:36:47.843Z,2.90
2019-05-12T06:37:57.110Z,2.80
2019-05-12T06:38:47.866Z,3.30
2019-05-12T06:39:50.922Z,3.50
2019-05-12T06:40:47.892Z,2.90
2019-05-12T06:41:47.957Z,2.80
2019-05-12T06:42:48.427Z,2.70
2019-05-12T06:43:47.941Z,2.70
2019-05-12T06:44:48.992Z,3.10
2019-05-12T06:45:47.994Z,2.90
2019-05-12T06:46:47.991Z,3.10
2019-05-12T06:47:49.635Z,2.60
2019-05-12T06:48:48.155Z,2.90
2019-05-12T06:49:48.734Z,2.80
2019-05-12T06:50:48.027Z,3.30
2019-05-12T06:51:48.047Z,3.10
2019-05-12T06:52:49.165Z,2.80
2019-05-12T06:53:48.068Z,2.80
2019-05-12T06:54:51.185Z,2.80
2019-05-12T06:55:48.118Z,3.00
2019-05-12T06:56:50.028Z,2.80
2019-05-12T06:57:50.111Z,2.50
2019-05-12T06:58:48.136Z,2.50
2019-05-12T06:59:51.406Z,2.50
2019-05-12T07:00:48.161Z,2.90
2019-05-12T07:01:49.777Z,2.80
2019-05-12T07:02:52.186Z,2.80
2019-05-12T07:03:48.202Z,2.70
2019-05-12T07:04:56.350Z,2.60
2019-05-12T07:05:48.238Z,3.10
2019-05-12T07:06:49.868Z,3.10
2019-05-12T07:07:48.259Z,2.60
2019-05-12T07:09:01.319Z,3.00
2019-05-12T07:09:54.122Z,2.70
2019-05-12T07:10:57.673Z,2.80
2019-05-12T07:11:53.486Z,3.00
2019-05-12T07:13:00.748Z,2.70
2019-05-12T07:14:01.270Z,2.70
2019-05-12T07:14:48.989Z,2.80
2019-05-12T07:15:48.373Z,2.60
2019-05-12T07:16:55.156Z,2.70
2019-05-12T07:17:49.870Z,2.90
2019-05-12T07:18:48.518Z,2.60
2019-05-12T07:19:54.665Z,2.30
2019-05-12T07:20:48.958Z,2.50
2019-05-12T07:21:50.666Z,2.50
2019-05-12T07:22:48.897Z,2.20
2019-05-12T07:23:48.487Z,2.70
2019-05-12T07:24:50.454Z,2.60
2019-05-12T07:25:48.508Z,2.80
2019-05-12T07:26:54.685Z,2.50
2019-05-12T07:27:58.411Z,2.60
2019-05-12T07:28:48.554Z,2.40
2019-05-12T07:29:48.561Z,2.70
2019-05-12T07:30:48.577Z,2.70
2019-05-12T07:31:48.593Z,2.60
2019-05-12T07:32:51.201Z,2.50
2019-05-12T07:33:48.618Z,2.70
2019-05-12T07:34:48.644Z,2.60
2019-05-12T07:35:53.465Z,2.40
2019-05-12T07:36:48.658Z,2.40
2019-05-12T07:37:48.675Z,2.40
2019-05-12T07:38:48.688Z,2.60
2019-05-12T07:39:49.391Z,2.80
2019-05-12T07:40:48.711Z,2.90
2019-05-12T07:41:50.992Z,2.20
2019-05-12T07:42:48.745Z,2.50
2019-05-12T07:43:50.572Z,2.20
2019-05-12T07:44:48.769Z,2.70
2019-05-12T07:45:53.962Z,2.20
2019-05-12T07:46:49.565Z,2.60
2019-05-12T07:47:48.817Z,2.40
2019-05-12T07:48:50.824Z,2.40
2019-05-12T07:49:48.837Z,2.40
2019-05-12T07:50:50.312Z,2.20
2019-05-12T07:51:50.125Z,2.20
2019-05-12T07:52:48.879Z,2.10
2019-05-12T07:53:55.440Z,1.90
2019-05-12T07:54:53.744Z,2.20
2019-05-12T07:55:49.557Z,2.50
2019-05-12T07:56:48.937Z,2.20
2019-05-12T07:57:55.265Z,2.20
2019-05-12T07:58:53.758Z,2.00
2019-05-12T07:59:48.984Z,2.30
2019-05-12T08:00:53.984Z,2.10
2019-05-12T08:01:52.045Z,2.30
2019-05-12T08:02:49.012Z,2.20
2019-05-12T08:03:51.035Z,2.10
2019-05-12T08:04:49.041Z,1.80
2019-05-12T08:05:51.341Z,1.80
2019-05-12T08:06:49.078Z,1.70
2019-05-12T08:07:50.516Z,2.10
2019-05-12T08:08:50.967Z,2.00
2019-05-12T08:09:49.119Z,2.10
2019-05-12T08:10:51.313Z,2.20
2019-05-12T08:11:49.155Z,1.80
2019-05-12T08:12:51.069Z,2.00
2019-05-12T08:13:49.169Z,2.00
2019-05-12T08:14:49.181Z,2.10
2019-05-12T08:15:51.374Z,2.20
2019-05-12T08:16:49.209Z,1.90
2019-05-12T08:17:54.609Z,2.00
2019-05-12T08:18:49.274Z,1.80
2019-05-12T08:19:49.357Z,1.80
2019-05-12T08:20:49.282Z,2.30
2019-05-12T08:21:49.396Z,1.90
2019-05-12T08:22:49.295Z,2.20
2019-05-12T08:23:49.315Z,2.00
2019-05-12T08:24:49.326Z,1.90
2019-05-12T08:25:49.339Z,1.90
2019-05-12T08:26:58.997Z,1.80
2019-05-12T08:27:51.782Z,2.00
2019-05-12T08:28:49.377Z,1.60
2019-05-12T08:29:52.453Z,2.00
2019-05-12T08:30:52.292Z,1.70
2019-05-12T08:31:49.428Z,1.80
2019-05-12T08:32:54.514Z,1.80
2019-05-12T08:33:49.454Z,2.00
2019-05-12T08:34:49.464Z,2.10
2019-05-12T08:35:49.475Z,1.90
2019-05-12T08:36:53.248Z,2.40
2019-05-12T08:37:49.512Z,1.90
2019-05-12T08:38:49.528Z,2.20
2019-05-12T08:39:53.349Z,1.80
2019-05-12T08:40:51.261Z,1.80
2019-05-12T08:41:49.561Z,1.70
2019-05-12T08:42:49.580Z,2.10
2019-05-12T08:43:55.012Z,2.20
2019-05-12T08:44:49.606Z,1.90
2019-05-12T08:45:49.618Z,2.00
2019-05-12T08:46:52.241Z,1.60
2019-05-12T08:47:49.643Z,1.60
2019-05-12T08:48:51.697Z,1.70
2019-05-12T08:49:55.402Z,1.40
2019-05-12T08:50:49.688Z,1.50
2019-05-12T08:51:57.866Z,1.60
2019-05-12T08:52:49.743Z,1.60
2019-05-12T08:53:53.970Z,1.50
2019-05-12T08:54:49.748Z,1.90
2019-05-12T08:55:49.759Z,1.60
2019-05-12T08:56:51.037Z,2.00
2019-05-12T08:57:49.861Z,1.80
2019-05-12T08:58:51.346Z,2.10
2019-05-12T08:59:54.728Z,2.00
2019-05-12T09:00:50.652Z,2.00
2019-05-12T09:01:49.842Z,2.40
2019-05-12T09:02:50.624Z,2.20
2019-05-12T09:03:49.887Z,1.90
2019-05-12T09:04:53.268Z,2.10
2019-05-12T09:05:49.900Z,2.10
2019-05-12T09:06:50.241Z,2.10
2019-05-12T09:07:49.938Z,1.90
2019-05-12T09:08:49.944Z,2.00
2019-05-12T09:09:49.954Z,2.00
2019-05-12T09:10:52.217Z,1.90
2019-05-12T09:11:49.984Z,1.80
2019-05-12T09:12:50.002Z,1.60
2019-05-12T09:13:52.700Z,1.70
2019-05-12T09:14:50.027Z,1.70
2019-05-12T09:15:50.040Z,2.00
2019-05-12T09:16:53.716Z,1.60
2019-05-12T09:17:56.568Z,1.70
2019-05-12T09:18:50.088Z,1.90
2019-05-12T09:19:55.088Z,1.80
2019-05-12T09:20:52.927Z,1.80
2019-05-12T09:21:50.130Z,1.90
2019-05-12T09:23:53.232Z,1.70
2019-05-12T09:24:50.173Z,1.50
2019-05-12T09:25:50.185Z,1.60
2019-05-12T09:26:50.195Z,1.50
2019-05-12T09:27:50.218Z,1.80
2019-05-12T09:28:50.508Z,1.90
2019-05-12T09:29:50.241Z,1.60
2019-05-12T09:30:50.262Z,1.80
2019-05-12T09:31:50.658Z,1.70
2019-05-12T09:32:53.781Z,1.70
2019-05-12T09:33:50.323Z,1.60
2019-05-12T09:34:52.847Z,1.60
2019-05-12T09:35:50.314Z,1.50
2019-05-12T09:36:56.625Z,1.60
2019-05-12T09:37:50.347Z,1.60
2019-05-12T09:38:53.615Z,1.70
2019-05-12T09:39:51.847Z,2.20
2019-05-12T09:40:55.069Z,1.90
2019-05-12T09:41:52.733Z,1.80
2019-05-12T09:42:50.413Z,1.70
2019-05-12T09:43:50.639Z,1.70
2019-05-12T09:44:50.446Z,1.70
2019-05-12T09:45:53.980Z,1.50
2019-05-12T09:46:50.476Z,1.60
2019-05-12T09:47:50.491Z,1.80
2019-05-12T09:48:52.335Z,1.60
2019-05-12T09:49:50.517Z,1.50
2019-05-12T09:50:51.564Z,1.60
2019-05-12T09:51:50.566Z,1.50
2019-05-12T09:52:53.523Z,1.60
2019-05-12T09:53:52.480Z,1.60
2019-05-12T09:54:50.591Z,1.50
2019-05-12T09:55:50.612Z,1.60
2019-05-12T09:56:55.407Z,1.60
2019-05-12T09:57:50.636Z,1.40
2019-05-12T09:58:59.124Z,1.70
2019-05-12T09:59:55.552Z,1.40
2019-05-12T10:00:50.677Z,1.50
2019-05-12T10:01:50.694Z,1.40
2019-05-12T10:02:51.125Z,1.40
2019-05-12T10:03:50.719Z,1.50
2019-05-12T10:04:56.353Z,1.60
2019-05-12T10:05:50.745Z,1.30
2019-05-12T10:06:50.765Z,1.70
2019-05-12T10:07:50.825Z,1.60
2019-05-12T10:08:50.790Z,1.30
2019-05-12T10:09:55.085Z,1.30
2019-05-12T10:10:53.410Z,1.50
2019-05-12T10:11:51.868Z,1.70
2019-05-12T10:12:50.845Z,1.40
2019-05-12T10:13:50.870Z,1.50
2019-05-12T10:14:50.875Z,1.50
2019-05-12T10:15:50.893Z,1.50
2019-05-12T10:16:50.906Z,1.40
2019-05-12T10:17:50.923Z,1.50
2019-05-12T10:18:51.577Z,1.30
2019-05-12T10:19:56.166Z,1.40
2019-05-12T10:20:53.368Z,1.50
2019-05-12T10:21:57.525Z,1.50
2019-05-12T10:22:50.993Z,1.40
2019-05-12T10:24:00.234Z,1.30
2019-05-12T10:24:55.973Z,1.50
2019-05-12T10:25:51.039Z,1.60
2019-05-12T10:26:51.063Z,1.30
2019-05-12T10:27:53.143Z,1.40
2019-05-12T10:28:53.670Z,1.40
2019-05-12T10:29:51.099Z,1.50
2019-05-12T10:30:55.219Z,1.60
2019-05-12T10:31:53.495Z,1.60
2019-05-12T10:32:51.140Z,1.60
2019-05-12T10:33:56.542Z,1.60
2019-05-12T10:34:51.865Z,1.70
2019-05-12T10:35:51.207Z,1.50
2019-05-12T10:36:53.498Z,1.40
2019-05-12T10:37:51.251Z,1.40
2019-05-12T10:38:51.238Z,1.40
2019-05-12T10:39:51.238Z,1.20
2019-05-12T10:40:51.461Z,1.20
2019-05-12T10:41:51.287Z,1.40
2019-05-12T10:42:53.444Z,1.20
2019-05-12T10:43:56.048Z,1.60
2019-05-12T10:44:54.395Z,1.30
2019-05-12T10:45:53.550Z,1.40
2019-05-12T10:46:53.319Z,1.20
2019-05-12T10:47:51.353Z,1.50
2019-05-12T10:48:53.273Z,1.30
2019-05-12T10:49:53.531Z,1.40
2019-05-12T10:50:53.626Z,1.40
2019-05-12T10:51:53.792Z,1.10
2019-05-12T10:52:53.495Z,1.30
2019-05-12T10:53:58.291Z,1.30
2019-05-12T10:54:53.729Z,1.30
2019-05-12T10:55:51.475Z,1.20
2019-05-12T10:56:54.248Z,1.40
2019-05-12T10:57:52.921Z,1.30
2019-05-12T10:58:53.513Z,1.40
2019-05-12T10:59:53.360Z,1.30
2019-05-12T11:00:53.526Z,1.40
2019-05-12T11:01:51.571Z,1.40
2019-05-12T11:02:53.442Z,1.30
2019-05-12T11:03:52.229Z,1.20
2019-05-12T11:04:53.658Z,1.30
2019-05-12T11:05:56.664Z,1.30
2019-05-12T11:06:53.324Z,1.30
2019-05-12T11:07:53.865Z,1.10
2019-05-12T11:08:53.706Z,1.30
2019-05-12T11:09:51.688Z,1.40
2019-05-12T11:10:57.448Z,1.00
2019-05-12T11:11:53.939Z,1.10
2019-05-12T11:12:51.726Z,1.40
2019-05-12T11:13:53.734Z,1.40
2019-05-12T11:14:54.037Z,1.20
2019-05-12T11:15:51.778Z,1.40
2019-05-12T11:16:54.124Z,1.40
2019-05-12T11:17:53.347Z,1.50
2019-05-12T11:18:54.091Z,1.40
2019-05-12T11:19:54.126Z,1.30
2019-05-12T11:20:54.188Z,1.50
2019-05-12T11:21:53.669Z,1.30
2019-05-12T11:22:54.118Z,1.30
2019-05-12T11:23:54.165Z,1.30
2019-05-12T11:24:53.510Z,1.40
2019-05-12T11:25:53.381Z,1.30
2019-05-12T11:26:53.666Z,1.20
2019-05-12T11:27:54.719Z,1.20
2019-05-12T11:28:53.201Z,1.40
2019-05-12T11:29:53.479Z,1.30
2019-05-12T11:30:52.008Z,1.20
2019-05-12T11:31:53.864Z,1.30
2019-05-12T11:32:54.123Z,1.20
2019-05-12T11:33:54.029Z,1.30
2019-05-12T11:34:53.739Z,1.30
2019-05-12T11:35:54.194Z,1.30
2019-05-12T11:36:54.349Z,1.20
2019-05-12T11:37:53.911Z,1.20
2019-05-12T11:38:53.333Z,1.30
2019-05-12T11:39:53.519Z,1.50
2019-05-12T11:40:53.788Z,1.20
2019-05-12T11:41:55.226Z,1.00
2019-05-12T11:42:55.650Z,1.10
2019-05-12T11:43:52.198Z,1.20
2019-05-12T11:44:52.202Z,1.20
2019-05-12T11:45:53.461Z,1.10
2019-05-12T11:46:54.441Z,1.00
2019-05-12T11:47:56.847Z,1.10
2019-05-12T11:48:53.869Z,1.10
2019-05-12T11:49:53.626Z,1.20
2019-05-12T11:50:54.505Z,1.10
2019-05-12T11:51:54.257Z,1.10
2019-05-12T11:52:52.396Z,1.10
2019-05-12T11:53:52.330Z,1.20
2019-05-12T11:54:53.758Z,1.10
2019-05-12T11:55:54.303Z,1.10
2019-05-12T11:56:53.563Z,1.10
2019-05-12T11:57:54.449Z,1.00
2019-05-12T11:58:54.183Z,1.00
2019-05-12T12:00:00.962Z,1.10
2019-05-12T12:00:53.319Z,1.10
2019-05-12T12:01:54.021Z,1.20
2019-05-12T12:02:52.467Z,1.20
2019-05-12T12:03:54.524Z,1.30
2019-05-12T12:04:54.350Z,1.20
2019-05-12T12:05:53.826Z,1.30
2019-05-12T12:06:54.311Z,1.10
2019-05-12T12:07:53.438Z,1.40
2019-05-12T12:08:53.714Z,1.30
2019-05-12T12:09:56.213Z,1.50
2019-05-12T12:10:54.154Z,1.20
2019-05-12T12:11:54.661Z,1.30
2019-05-12T12:12:53.942Z,1.20
2019-05-12T12:13:53.580Z,1.20
2019-05-12T12:14:53.632Z,1.10
2019-05-12T12:15:52.659Z,1.20
2019-05-12T12:16:54.465Z,1.40
2019-05-12T12:17:53.585Z,1.20
2019-05-12T12:19:02.324Z,1.00
2019-05-12T12:19:54.452Z,1.00
2019-05-12T12:20:55.101Z,1.00
2019-05-12T12:21:53.659Z,0.90
2019-05-12T12:22:54.269Z,1.10
2019-05-12T12:23:53.424Z,1.10
2019-05-12T12:24:54.261Z,1.20
2019-05-12T12:25:53.516Z,1.40
2019-05-12T12:26:53.764Z,1.00
2019-05-12T12:27:53.734Z,1.40
2019-05-12T12:28:53.819Z,1.10
2019-05-12T12:29:54.373Z,1.20
2019-05-12T12:30:56.851Z,1.20
2019-05-12T12:31:52.900Z,1.30
2019-05-12T12:32:58.744Z,1.30
2019-05-12T12:33:53.627Z,1.10
2019-05-12T12:34:54.400Z,1.40
2019-05-12T12:35:56.628Z,1.20
2019-05-12T12:36:54.380Z,1.20
2019-05-12T12:37:54.111Z,1.20
2019-05-12T12:38:53.658Z,1.10
2019-05-12T12:39:53.586Z,1.40
2019-05-12T12:40:53.685Z,1.00
2019-05-12T12:41:59.795Z,1.40
2019-05-12T12:42:53.834Z,1.20
2019-05-12T12:43:54.018Z,1.10
2019-05-12T12:44:53.578Z,1.20
2019-05-12T12:45:53.106Z,1.20
2019-05-12T12:46:59.930Z,1.20
2019-05-12T12:47:54.043Z,1.30
2019-05-12T12:48:54.242Z,1.10
2019-05-12T12:49:53.185Z,1.20
2019-05-12T12:50:53.515Z,1.10
2019-05-12T12:51:53.299Z,1.10
2019-05-12T12:52:53.545Z,1.30
2019-05-12T12:53:54.081Z,1.30
2019-05-12T12:54:54.317Z,1.20
2019-05-12T12:55:53.926Z,1.20
2019-05-12T12:56:53.924Z,1.20
2019-05-12T12:57:53.292Z,1.50
2019-05-12T12:58:55.336Z,1.30
2019-05-12T12:59:53.323Z,1.30
2019-05-12T13:00:56.329Z,1.30
2019-05-12T13:01:53.363Z,1.20
2019-05-12T13:02:53.382Z,1.40
2019-05-12T13:03:53.726Z,1.00
2019-05-12T13:04:53.871Z,1.20
2019-05-12T13:05:54.284Z,1.00
2019-05-12T13:06:54.397Z,1.10
2019-05-12T13:07:53.630Z,1.10
2019-05-12T13:08:54.147Z,1.20
2019-05-12T13:09:54.983Z,1.20
2019-05-12T13:10:54.250Z,1.10
2019-05-12T13:11:53.687Z,1.10
2019-05-12T13:12:56.542Z,1.20
2019-05-12T13:13:53.676Z,1.20
2019-05-12T13:14:53.606Z,1.10
2019-05-12T13:15:53.686Z,1.30
2019-05-12T13:16:54.602Z,1.10
2019-05-12T13:17:53.649Z,1.30
2019-05-12T13:18:53.942Z,1.20
2019-05-12T13:19:58.387Z,1.30
2019-05-12T13:20:54.070Z,1.50
2019-05-12T13:21:53.724Z,1.50
2019-05-12T13:22:53.752Z,1.30
2019-05-12T13:23:53.999Z,1.10